createdAt,value
2018-01-13T00:00:37.409Z,73.40
2018-01-13T00:03:05.658Z,72.80
2018-01-13T00:05:33.904Z,74.50
2018-01-13T00:08:02.173Z,73.50
2018-01-13T00:10:30.428Z,75.00
2018-01-13T00:12:58.698Z,75.30
2018-01-13T00:15:26.969Z,75.70
2018-01-13T00:17:55.214Z,76.40
2018-01-13T00:20:23.489Z,76.70
2018-01-13T00:22:52.825Z,76.90
2018-01-13T00:25:21.141Z,76.90
2018-01-13T00:27:49.545Z,77.10
2018-01-13T00:30:18.604Z,78.00
2018-01-13T00:32:46.858Z,78.00
2018-01-13T00:35:15.106Z,77.60
2018-01-13T00:37:43.385Z,77.20
2018-01-13T00:40:11.646Z,78.00
2018-01-13T00:42:39.893Z,78.00
2018-01-13T00:45:08.548Z,78.30
2018-01-13T00:47:36.798Z,78.00
2018-01-13T00:50:05.049Z,77.60
2018-01-13T00:52:34.104Z,77.80
2018-01-13T00:55:02.385Z,77.80
2018-01-13T00:57:30.625Z,77.70
2018-01-13T00:59:58.897Z,78.10
2018-01-13T01:02:27.149Z,78.50
2018-01-13T01:04:56.425Z,78.80
2018-01-13T01:07:24.886Z,78.30
2018-01-13T01:09:53.142Z,78.40
2018-01-13T01:12:21.389Z,78.20
2018-01-13T01:14:49.661Z,77.80
2018-01-13T01:17:18.677Z,78.10
2018-01-13T01:19:46.930Z,78.00
2018-01-13T01:22:15.201Z,77.90
2018-01-13T01:24:43.446Z,77.90
2018-01-13T01:27:11.689Z,78.00
2018-01-13T01:29:40.909Z,78.30
2018-01-13T01:32:09.189Z,78.10
2018-01-13T01:34:37.475Z,77.90
2018-01-13T01:37:05.737Z,78.20
2018-01-13T01:39:33.989Z,78.20
2018-01-13T01:42:02.256Z,78.70
2018-01-13T01:44:30.517Z,78.50
2018-01-13T01:46:59.632Z,78.20
2018-01-13T01:49:27.877Z,78.20
2018-01-13T01:51:56.629Z,78.10
2018-01-13T01:54:24.882Z,77.70
2018-01-13T01:56:53.138Z,77.50
2018-01-13T01:59:21.413Z,78.00
2018-01-13T02:01:50.440Z,78.40
2018-01-13T02:04:18.685Z,78.40
2018-01-13T02:06:46.970Z,77.30
2018-01-13T02:09:15.981Z,77.30
2018-01-13T02:11:44.243Z,77.20
2018-01-13T02:14:13.556Z,76.80
2018-01-13T02:16:41.813Z,76.80
2018-01-13T02:19:10.062Z,76.70
2018-01-13T02:21:38.337Z,77.20
2018-01-13T02:24:06.593Z,77.20
2018-01-13T02:26:34.841Z,77.40
2018-01-13T02:29:03.118Z,77.40
2018-01-13T02:31:31.469Z,77.70
2018-01-13T02:33:59.941Z,77.80
2018-01-13T02:36:29.197Z,78.00
2018-01-13T02:38:57.447Z,77.50
2018-01-13T02:41:25.704Z,77.80
2018-01-13T02:43:54.733Z,77.90
2018-01-13T02:46:22.978Z,77.80
2018-01-13T02:48:51.225Z,77.70
2018-01-13T02:51:19.489Z,78.20
2018-01-13T02:53:47.738Z,78.40
2018-01-13T02:56:15.982Z,78.10
2018-01-13T02:58:45.334Z,78.20
2018-01-13T03:01:13.585Z,78.20
2018-01-13T03:03:41.833Z,77.60
2018-01-13T03:06:10.109Z,77.50
2018-01-13T03:08:39.136Z,77.80
2018-01-13T03:11:07.386Z,77.80
2018-01-13T03:13:35.649Z,77.90
2018-01-13T03:16:04.665Z,78.50
2018-01-13T03:18:32.919Z,78.40
2018-01-13T03:21:01.669Z,77.90
2018-01-13T03:23:29.950Z,78.70
2018-01-13T03:25:58.193Z,77.40
2018-01-13T03:28:26.777Z,77.80
2018-01-13T03:30:55.070Z,77.70
2018-01-13T03:33:23.789Z,78.10
2018-01-13T03:35:52.066Z,78.70
2018-01-13T03:38:20.317Z,78.60
2018-01-13T03:40:48.561Z,78.90
2018-01-13T03:43:16.973Z,78.70
2018-01-13T03:45:45.381Z,79.00
2018-01-13T03:48:13.626Z,78.80
2018-01-13T03:50:41.905Z,78.70
2018-01-13T03:53:10.153Z,78.40
2018-01-13T03:55:38.406Z,78.40
2018-01-13T03:58:06.690Z,78.50
2018-01-13T04:00:35.709Z,78.40
2018-01-13T04:03:03.957Z,78.30
2018-01-13T04:05:32.624Z,78.40
2018-01-13T04:08:00.887Z,78.80
2018-01-13T04:10:29.129Z,78.70
2018-01-13T04:12:57.401Z,78.70
2018-01-13T04:15:25.659Z,78.60
2018-01-13T04:17:54.669Z,78.90
2018-01-13T04:20:22.946Z,78.80
2018-01-13T04:22:51.207Z,78.90
2018-01-13T04:25:19.453Z,78.20
2018-01-13T04:27:47.786Z,77.50
2018-01-13T04:30:16.029Z,78.00
2018-01-13T04:32:44.286Z,78.30
2018-01-13T04:35:12.679Z,78.00
2018-01-13T04:37:41.710Z,78.40
2018-01-13T04:40:09.965Z,78.40
2018-01-13T04:42:38.229Z,78.50
2018-01-13T04:45:06.486Z,78.90
2018-01-13T04:47:34.730Z,78.70
2018-01-13T04:50:03.309Z,78.50
2018-01-13T04:52:31.562Z,79.10
2018-01-13T04:54:59.809Z,79.10
2018-01-13T04:57:28.844Z,78.70
2018-01-13T04:59:57.097Z,78.60
2018-01-13T05:02:26.105Z,79.50
2018-01-13T05:04:54.386Z,79.50
2018-01-13T05:07:22.637Z,78.40
2018-01-13T05:09:50.885Z,77.70
2018-01-13T05:12:19.337Z,77.60
2018-01-13T05:14:47.585Z,78.10
2018-01-13T05:17:15.841Z,77.90
2018-01-13T05:19:44.969Z,78.30
2018-01-13T05:22:13.217Z,78.30
2018-01-13T05:24:41.474Z,77.60
2018-01-13T05:27:09.745Z,77.90
2018-01-13T05:29:38.456Z,78.60
2018-01-13T05:32:06.709Z,78.60
2018-01-13T05:34:35.365Z,78.60
2018-01-13T05:37:03.713Z,78.90
2018-01-13T05:39:31.968Z,78.70
2018-01-13T05:42:00.310Z,78.30
2018-01-13T05:44:28.535Z,77.90
2018-01-13T05:46:57.549Z,78.10
2018-01-13T05:49:25.825Z,78.00
2018-01-13T05:51:54.084Z,78.30
2018-01-13T05:54:22.329Z,78.10
2018-01-13T05:56:50.782Z,78.50
2018-01-13T05:59:19.033Z,79.10
2018-01-13T06:01:47.281Z,79.50
2018-01-13T06:04:16.317Z,79.50
2018-01-13T06:06:44.568Z,79.40
2018-01-13T06:09:13.577Z,79.40
2018-01-13T06:11:41.849Z,79.30
2018-01-13T06:14:10.105Z,78.90
2018-01-13T06:16:39.581Z,77.70
2018-01-13T06:19:08.345Z,78.20
2018-01-13T06:21:36.597Z,78.20
2018-01-13T06:24:04.849Z,79.20
2018-01-13T06:26:33.894Z,78.40
2018-01-13T06:29:02.141Z,78.30
2018-01-13T06:31:30.398Z,77.90
2018-01-13T06:33:58.674Z,79.00
2018-01-13T06:36:27.690Z,80.00
2018-01-13T06:38:56.245Z,80.00
2018-01-13T06:41:25.713Z,79.40
2018-01-13T06:43:53.962Z,79.30
2018-01-13T06:46:22.205Z,79.50
2018-01-13T06:48:50.481Z,77.60
2018-01-13T06:51:19.639Z,78.20
2018-01-13T06:53:47.882Z,78.60
2018-01-13T06:56:16.161Z,79.90
2018-01-13T06:58:44.418Z,79.60
2018-01-13T07:01:12.657Z,79.60
2018-01-13T07:03:41.337Z,79.00
2018-01-13T07:06:09.584Z,79.50
2018-01-13T07:08:37.825Z,78.00
2018-01-13T07:11:06.869Z,78.30
2018-01-13T07:13:35.121Z,78.30
2018-01-13T07:16:03.449Z,79.30
2018-01-13T07:18:31.725Z,78.50
2018-01-13T07:20:59.969Z,78.50
2018-01-13T07:23:28.226Z,78.30
2018-01-13T07:25:56.580Z,79.10
2018-01-13T07:28:24.837Z,79.20
2018-01-13T07:30:53.093Z,79.20
2018-01-13T07:33:21.357Z,79.40
2018-01-13T07:35:49.605Z,79.90
2018-01-13T07:38:17.856Z,79.60
2018-01-13T07:40:46.373Z,79.30
2018-01-13T07:43:14.633Z,80.10
2018-01-13T07:45:42.878Z,77.80
2018-01-13T07:48:11.305Z,78.00
2018-01-13T07:50:39.554Z,77.50
2018-01-13T07:53:08.862Z,77.90
2018-01-13T07:55:37.111Z,77.90
2018-01-13T07:58:05.353Z,78.10
2018-01-13T08:00:33.601Z,78.50
2018-01-13T08:03:01.866Z,78.80
2018-01-13T08:05:30.119Z,78.70
2018-01-13T08:07:58.375Z,78.90
2018-01-13T08:10:26.941Z,79.60
2018-01-13T08:12:55.193Z,78.70
2018-01-13T08:15:23.445Z,78.80
2018-01-13T08:17:52.481Z,79.10
2018-01-13T08:20:20.731Z,79.00
2018-01-13T08:22:49.989Z,78.80
2018-01-13T08:25:18.278Z,78.70
2018-01-13T08:27:46.532Z,78.80
2018-01-13T08:30:14.773Z,78.80
2018-01-13T08:32:43.105Z,78.80
2018-01-13T08:35:11.353Z,78.40
2018-01-13T08:37:39.602Z,78.00
2018-01-13T08:40:07.877Z,78.10
2018-01-13T08:42:36.447Z,77.70
2018-01-13T08:45:05.461Z,77.70
2018-01-13T08:47:33.732Z,77.60
2018-01-13T08:50:01.987Z,76.10
2018-01-13T08:52:30.237Z,77.00
2018-01-13T08:54:59.011Z,76.00
2018-01-13T08:57:27.249Z,77.00
2018-01-13T08:59:55.512Z,77.30
2018-01-13T09:02:23.787Z,76.70
2018-01-13T09:04:52.801Z,77.80
2018-01-13T09:07:21.044Z,77.70
2018-01-13T09:09:49.317Z,77.80
2018-01-13T09:12:18.332Z,75.90
2018-01-13T09:14:46.665Z,75.70
2018-01-13T09:17:15.021Z,76.50
2018-01-13T09:19:43.279Z,76.50
2018-01-13T09:22:11.521Z,76.10
2018-01-13T09:24:40.562Z,75.30
2018-01-13T09:27:08.812Z,75.30
2018-01-13T09:29:37.150Z,74.90
2018-01-13T09:32:05.429Z,75.60
2018-01-13T09:34:35.203Z,73.70
2018-01-13T09:37:03.445Z,73.50
2018-01-13T09:39:32.064Z,74.30
2018-01-13T09:42:00.316Z,72.80
2018-01-13T09:44:29.353Z,74.20
2018-01-13T09:46:57.621Z,74.10
2018-01-13T09:49:25.865Z,73.90
2018-01-13T09:51:54.141Z,72.80
2018-01-13T09:54:23.173Z,73.70
2018-01-13T09:56:51.425Z,73.80
2018-01-13T09:59:19.673Z,73.60
2018-01-13T10:01:48.921Z,72.80
2018-01-13T10:04:17.179Z,72.80
2018-01-13T10:06:45.421Z,72.10
2018-01-13T10:09:14.457Z,70.30
2018-01-13T10:11:42.713Z,70.10
2018-01-13T10:14:11.721Z,70.40
2018-01-13T10:16:40.069Z,70.40
2018-01-13T10:19:09.077Z,70.10
2018-01-13T10:21:39.265Z,70.00
2018-01-13T10:24:08.439Z,68.90
2018-01-13T10:26:36.689Z,69.40
2018-01-13T10:29:05.121Z,69.80
2018-01-13T10:31:35.570Z,70.00
2018-01-13T10:34:04.889Z,68.30
2018-01-13T10:36:34.142Z,69.00
2018-01-13T10:39:02.561Z,68.80
2018-01-13T10:41:31.574Z,69.00
2018-01-13T10:43:59.898Z,69.00
2018-01-13T10:46:28.686Z,67.20
2018-01-13T10:48:56.937Z,67.40
2018-01-13T10:51:25.197Z,67.30
2018-01-13T10:53:54.666Z,67.00
2018-01-13T10:56:23.690Z,67.80
2018-01-13T10:58:51.933Z,67.80
2018-01-13T11:01:20.417Z,67.20
2018-01-13T11:03:49.430Z,66.10
2018-01-13T11:06:18.437Z,65.20
2018-01-13T11:08:46.765Z,65.10
2018-01-13T11:11:15.013Z,64.90
2018-01-13T11:13:43.276Z,65.30
2018-01-13T11:16:11.537Z,66.30
2018-01-13T11:18:39.802Z,65.40
2018-01-13T11:21:08.814Z,66.10
2018-01-13T11:23:37.089Z,66.00
2018-01-13T11:26:05.420Z,65.60
2018-01-13T11:28:33.677Z,66.00
2018-01-13T11:31:02.309Z,66.20
2018-01-13T11:33:30.553Z,66.10
2018-01-13T11:35:58.801Z,65.50
2018-01-13T11:38:27.088Z,65.30
2018-01-13T11:40:55.330Z,65.40
2018-01-13T11:43:23.581Z,64.60
2018-01-13T11:45:51.870Z,65.00
2018-01-13T11:48:20.881Z,65.60
2018-01-13T11:50:49.127Z,65.60
2018-01-13T11:53:17.657Z,66.50
2018-01-13T11:55:47.219Z,66.80
2018-01-13T11:58:15.445Z,66.50
2018-01-13T12:00:43.729Z,65.90
2018-01-13T12:03:11.982Z,65.50
2018-01-13T12:05:40.231Z,64.70
2018-01-13T12:08:08.508Z,64.70
2018-01-13T12:10:37.773Z,64.20
2018-01-13T12:13:06.737Z,64.20
2018-01-13T12:15:35.237Z,65.20
2018-01-13T12:18:03.533Z,65.40
2018-01-13T12:20:31.773Z,64.50
2018-01-13T12:23:00.048Z,64.60
2018-01-13T12:25:28.292Z,64.10
2018-01-13T12:27:56.537Z,63.70
2018-01-13T12:30:24.806Z,63.20
2018-01-13T12:32:53.057Z,62.50
2018-01-13T12:35:21.341Z,61.90
2018-01-13T12:37:49.750Z,61.40
2018-01-13T12:40:18.941Z,60.80
2018-01-13T12:42:47.321Z,60.60
2018-01-13T12:45:15.721Z,60.90
2018-01-13T12:47:45.925Z,61.60
2018-01-13T12:50:15.226Z,61.50
2018-01-13T12:52:43.631Z,61.90
2018-01-13T12:55:13.618Z,61.10
2018-01-13T12:57:44.132Z,61.10
2018-01-13T13:00:12.425Z,60.80
2018-01-13T13:02:40.895Z,61.20
2018-01-13T13:05:09.210Z,61.00
2018-01-13T13:07:39.427Z,60.10
2018-01-13T13:10:07.654Z,60.10
2018-01-13T13:12:35.930Z,60.00
2018-01-13T13:15:04.178Z,61.00
2018-01-13T13:17:34.461Z,60.50
2018-01-13T13:20:02.906Z,61.20
2018-01-13T13:22:33.366Z,60.00
2018-01-13T13:25:01.618Z,59.80
2018-01-13T13:27:29.893Z,60.10
2018-01-13T13:29:58.146Z,59.70
2018-01-13T13:32:26.397Z,60.00
2018-01-13T13:34:55.598Z,60.40
2018-01-13T13:37:24.614Z,60.90
2018-01-13T13:39:52.953Z,60.90
2018-01-13T13:42:21.281Z,60.80
2018-01-13T13:44:53.388Z,60.70
2018-01-13T13:47:21.772Z,60.40
2018-01-13T13:49:50.041Z,60.50
2018-01-13T13:52:18.772Z,60.20
2018-01-13T13:54:47.209Z,60.00
2018-01-13T13:57:16.586Z,60.60
2018-01-13T13:59:50.348Z,61.20
2018-01-13T14:02:13.950Z,61.20
2018-01-13T14:04:42.490Z,60.10
2018-01-13T14:07:11.147Z,60.20
2018-01-13T14:09:39.377Z,60.60
2018-01-13T14:12:07.657Z,60.90
2018-01-13T14:14:35.905Z,60.80
2018-01-13T14:17:04.357Z,60.40
2018-01-13T14:19:32.601Z,61.00
2018-01-13T14:22:00.922Z,61.00
2018-01-13T14:24:29.165Z,61.30
2018-01-13T14:26:58.329Z,61.60
2018-01-13T14:29:27.372Z,61.20
2018-01-13T14:31:55.626Z,61.10
2018-01-13T14:34:24.070Z,60.70
2018-01-13T14:36:53.113Z,61.20
2018-01-13T14:39:23.676Z,61.10
2018-01-13T14:41:52.917Z,61.30
2018-01-13T14:44:22.037Z,61.50
2018-01-13T14:46:50.274Z,61.40
2018-01-13T14:49:18.938Z,61.50
2018-01-13T14:51:47.308Z,61.60
2018-01-13T14:54:15.693Z,61.50
2018-01-13T14:56:44.101Z,61.00
2018-01-13T14:59:14.289Z,61.70
2018-01-13T15:01:43.597Z,61.60
2018-01-13T15:04:13.229Z,61.20
2018-01-13T15:06:42.252Z,61.30
2018-01-13T15:09:10.879Z,61.20
2018-01-13T15:11:39.448Z,60.80
2018-01-13T15:14:09.786Z,60.70
2018-01-13T15:16:38.161Z,61.20
2018-01-13T15:19:06.439Z,62.20
2018-01-13T15:21:34.811Z,62.50
2018-01-13T15:24:03.033Z,62.50
2018-01-13T15:26:31.392Z,62.60
2018-01-13T15:29:00.837Z,62.80
2018-01-13T15:31:30.289Z,62.70
2018-01-13T15:33:58.870Z,62.90
2018-01-13T15:36:27.351Z,62.80
2018-01-13T15:38:56.837Z,62.30
2018-01-13T15:41:25.532Z,63.10
2018-01-13T15:43:53.778Z,61.80
2018-01-13T15:46:22.889Z,62.30
2018-01-13T15:48:52.958Z,62.40
2018-01-13T15:51:22.317Z,62.00
2018-01-13T15:53:51.402Z,61.90
2018-01-13T15:56:19.705Z,61.60
2018-01-13T15:58:49.262Z,62.00
2018-01-13T16:01:17.589Z,62.00
2018-01-13T16:03:46.353Z,62.30
2018-01-13T16:06:15.157Z,61.40
2018-01-13T16:08:43.386Z,60.40
2018-01-13T16:11:11.662Z,60.20
2018-01-13T16:13:39.905Z,60.20
2018-01-13T16:16:09.093Z,60.30
2018-01-13T16:18:39.697Z,61.10
2018-01-13T16:21:07.938Z,61.20
2018-01-13T16:23:37.479Z,61.30
2018-01-13T16:26:06.937Z,61.70
2018-01-13T16:28:37.137Z,61.90
2018-01-13T16:31:05.518Z,61.80
2018-01-13T16:33:34.139Z,61.00
2018-01-13T16:36:02.582Z,61.10
2018-01-13T16:38:32.821Z,60.90
2018-01-13T16:41:01.389Z,60.40
2018-01-13T16:43:29.866Z,60.30
2018-01-13T16:45:58.245Z,60.10
2018-01-13T16:48:27.453Z,60.60
2018-01-13T16:50:55.925Z,60.60
2018-01-13T16:53:24.309Z,60.70
2018-01-13T16:55:52.713Z,60.70
2018-01-13T16:58:21.733Z,60.40
2018-01-13T17:00:50.333Z,60.30
2018-01-13T17:03:19.421Z,60.00
2018-01-13T17:05:47.782Z,60.40
2018-01-13T17:08:16.936Z,60.50
2018-01-13T17:10:45.305Z,60.40
2018-01-13T17:13:13.530Z,60.30
2018-01-13T17:15:41.874Z,60.20
2018-01-13T17:18:10.150Z,60.00
2018-01-13T17:20:38.821Z,60.10
2018-01-13T17:23:08.237Z,60.40
2018-01-13T17:25:36.701Z,60.50
2018-01-13T17:28:05.002Z,60.30
2018-01-13T17:30:33.377Z,60.40
2018-01-13T17:33:02.711Z,60.70
2018-01-13T17:35:32.904Z,60.90
2018-01-13T17:38:01.279Z,60.80
2018-01-13T17:40:30.617Z,60.80
2018-01-13T17:42:59.802Z,61.30
2018-01-13T17:45:28.261Z,61.30
2018-01-13T17:47:56.589Z,61.50
2018-01-13T17:50:24.833Z,62.00
2018-01-13T17:52:53.459Z,60.50
2018-01-13T17:55:22.409Z,60.20
2018-01-13T17:57:52.646Z,60.20
2018-01-13T18:00:22.869Z,60.10
2018-01-13T18:02:52.019Z,60.70
2018-01-13T18:05:20.302Z,60.60
2018-01-13T18:07:48.664Z,60.90
2018-01-13T18:10:16.965Z,60.70
2018-01-13T18:12:45.347Z,60.70
2018-01-13T18:15:15.573Z,60.40
2018-01-13T18:17:43.825Z,60.60
2018-01-13T18:20:12.106Z,61.30
2018-01-13T18:22:40.367Z,60.90
2018-01-13T18:25:08.778Z,61.00
2018-01-13T18:27:37.026Z,60.90
2018-01-13T18:30:06.618Z,61.30
2018-01-13T18:32:34.881Z,61.10
2018-01-13T18:35:05.074Z,61.20
2018-01-13T18:37:33.628Z,61.20
2018-01-13T18:40:03.045Z,61.50
2018-01-13T18:42:31.426Z,61.10
2018-01-13T18:44:59.744Z,61.20
2018-01-13T18:47:28.194Z,61.30
2018-01-13T18:49:56.695Z,60.60
2018-01-13T18:52:25.141Z,60.70
2018-01-13T18:54:53.511Z,59.50
2018-01-13T18:57:22.942Z,59.70
2018-01-13T18:59:52.772Z,60.10
2018-01-13T19:02:21.263Z,59.90
2018-01-13T19:04:49.606Z,60.20
2018-01-13T19:07:18.390Z,60.00
2018-01-13T19:09:46.670Z,60.00
2018-01-13T19:12:14.921Z,59.90
2018-01-13T19:14:43.269Z,60.30
2018-01-13T19:17:12.725Z,60.70
2018-01-13T19:19:42.030Z,60.00
2018-01-13T19:22:10.441Z,59.50
2018-01-13T19:24:40.629Z,59.50
2018-01-13T19:27:09.039Z,59.50
2018-01-13T19:29:38.061Z,59.70
2018-01-13T19:32:07.410Z,59.70
2018-01-13T19:34:37.526Z,59.10
2018-01-13T19:37:12.569Z,59.10
2018-01-13T19:39:41.041Z,59.10
2018-01-13T19:42:09.421Z,59.60
2018-01-13T19:44:37.821Z,59.90
2018-01-13T19:47:06.841Z,59.40
2018-01-13T19:49:35.105Z,59.40
2018-01-13T19:52:03.382Z,59.30
2018-01-13T19:54:31.625Z,59.30
2018-01-13T19:57:00.008Z,59.60
2018-01-13T19:59:33.677Z,59.20
2018-01-13T20:02:01.943Z,59.00
2018-01-13T20:04:30.197Z,59.00
2018-01-13T20:06:58.481Z,59.00
2018-01-13T20:09:26.737Z,59.40
2018-01-13T20:11:55.193Z,59.60
2018-01-13T20:14:23.470Z,59.90
2018-01-13T20:16:51.949Z,59.50
2018-01-13T20:19:20.333Z,59.60
2018-01-13T20:21:48.777Z,59.50
2018-01-13T20:24:17.397Z,59.30
2018-01-13T20:26:45.772Z,58.70
2018-01-13T20:29:14.233Z,58.80
2018-01-13T20:31:44.821Z,58.50
2018-01-13T20:34:13.065Z,58.90
2018-01-13T20:36:42.390Z,59.00
2018-01-13T20:39:11.409Z,58.70
2018-01-13T20:41:39.672Z,58.60
2018-01-13T20:44:08.102Z,58.10
2018-01-13T20:46:36.493Z,57.50
2018-01-13T20:49:04.741Z,57.20
2018-01-13T20:51:33.333Z,57.40
2018-01-13T20:54:01.577Z,58.20
2018-01-13T20:56:29.834Z,58.20
2018-01-13T20:58:58.139Z,58.10
2018-01-13T21:01:27.417Z,57.90
2018-01-13T21:03:57.779Z,57.60
2018-01-13T21:06:26.115Z,57.60
2018-01-13T21:08:54.545Z,57.80
2018-01-13T21:11:22.813Z,57.70
2018-01-13T21:13:51.185Z,57.60
2018-01-13T21:16:19.424Z,57.70
2018-01-13T21:18:47.675Z,57.90
2018-01-13T21:21:16.014Z,56.90
2018-01-13T21:23:44.266Z,57.10
2018-01-13T21:26:12.709Z,57.20
2018-01-13T21:28:41.478Z,57.00
2018-01-13T21:31:09.814Z,57.20
2018-01-13T21:33:39.170Z,57.00
2018-01-13T21:36:08.438Z,57.00
2018-01-13T21:38:37.429Z,56.80
2018-01-13T21:41:05.881Z,56.80
2018-01-13T21:43:35.078Z,57.20
2018-01-13T21:46:04.414Z,56.90
2018-01-13T21:48:32.695Z,56.90
2018-01-13T21:51:01.014Z,56.60
2018-01-13T21:53:29.253Z,56.70
2018-01-13T21:55:57.569Z,57.00
2018-01-13T21:58:26.285Z,57.00
2018-01-13T22:00:55.301Z,57.20
2018-01-13T22:03:23.545Z,57.10
2018-01-13T22:05:52.025Z,57.10
2018-01-13T22:08:21.045Z,57.30
2018-01-13T22:10:49.330Z,57.20
2018-01-13T22:13:17.653Z,57.20
2018-01-13T22:15:45.897Z,56.50
2018-01-13T22:18:14.141Z,56.00
2018-01-13T22:20:42.411Z,55.80
2018-01-13T22:23:10.852Z,55.60
2018-01-13T22:25:39.073Z,55.80
2018-01-13T22:28:08.109Z,56.20
2018-01-13T22:30:36.358Z,56.20
2018-01-13T22:33:04.605Z,55.30
2018-01-13T22:35:33.048Z,55.80
2018-01-13T22:38:01.289Z,55.60
2018-01-13T22:40:29.551Z,56.00
2018-01-13T22:42:57.854Z,56.00
2018-01-13T22:45:26.106Z,56.40
2018-01-13T22:47:55.117Z,57.10
2018-01-13T22:50:23.398Z,57.70
2018-01-13T22:52:51.697Z,56.60
2018-01-13T22:55:20.157Z,56.30
2018-01-13T22:57:48.490Z,56.40
2018-01-13T23:00:16.997Z,56.30
2018-01-13T23:02:46.010Z,56.00
2018-01-13T23:05:14.282Z,55.90
2018-01-13T23:07:42.537Z,56.00
2018-01-13T23:10:10.781Z,56.10
2018-01-13T23:12:39.061Z,55.60
2018-01-13T23:15:08.461Z,55.30
2018-01-13T23:17:36.727Z,54.80
2018-01-13T23:20:05.041Z,55.30
2018-01-13T23:22:34.057Z,55.10
2018-01-13T23:25:02.312Z,55.10
2018-01-13T23:27:31.341Z,55.30
2018-01-13T23:29:59.661Z,55.30
2018-01-13T23:32:28.130Z,55.20
2018-01-13T23:34:56.382Z,55.10
2018-01-13T23:37:24.627Z,55.20
2018-01-13T23:39:52.905Z,55.40
2018-01-13T23:42:21.225Z,55.90
2018-01-13T23:44:49.469Z,56.10
2018-01-13T23:47:17.756Z,56.10
2018-01-13T23:49:46.041Z,55.80
2018-01-13T23:52:14.287Z,55.50
2018-01-13T23:54:42.528Z,55.60
2018-01-13T23:57:10.809Z,55.60
2018-01-13T23:59:39.061Z,56.10
